sensor_id;sensor_type;location;lat;lon;timestamp;P1;P2;P0
76304;PMS7003;65111;50.536;19.204;2023-04-24T00:01:52;12.50;12.00;8.50
76304;PMS7003;65111;50.536;19.204;2023-04-24T00:04:18;12.50;10.50;6.00
76304;PMS7003;65111;50.536;19.204;2023-04-24T00:06:44;16.50;13.50;9.50
76304;PMS7003;65111;50.536;19.204;2023-04-24T00:09:14;11.33;10.67;7.33
76304;PMS7003;65111;50.536;19.204;2023-04-24T00:11:41;11.00;11.00;8.00
76304;PMS7003;65111;50.536;19.204;2023-04-24T00:14:07;15.00;13.00;8.00
76304;PMS7003;65111;50.536;19.204;2023-04-24T00:16:33;12.33;12.33;9.00
76304;PMS7003;65111;50.536;19.204;2023-04-24T00:18:59;17.00;16.00;9.00
76304;PMS7003;65111;50.536;19.204;2023-04-24T00:21:26;22.00;20.00;12.00
76304;PMS7003;65111;50.536;19.204;2023-04-24T00:23:52;20.50;16.00;12.00
76304;PMS7003;65111;50.536;19.204;2023-04-24T00:26:18;23.50;23.00;14.50
76304;PMS7003;65111;50.536;19.204;2023-04-24T00:28:44;16.00;15.00;9.00
76304;PMS7003;65111;50.536;19.204;2023-04-24T00:31:10;17.33;17.33;12.67
76304;PMS7003;65111;50.536;19.204;2023-04-24T00:33:37;20.00;17.67;12.00
76304;PMS7003;65111;50.536;19.204;2023-04-24T00:36:03;23.00;19.00;12.67
76304;PMS7003;65111;50.536;19.204;2023-04-24T00:38:29;19.00;17.50;12.50
76304;PMS7003;65111;50.536;19.204;2023-04-24T00:40:55;16.67;16.00;10.33
76304;PMS7003;65111;50.536;19.204;2023-04-24T00:43:21;24.00;23.00;15.00
76304;PMS7003;65111;50.536;19.204;2023-04-24T00:45:48;23.00;21.50;15.00
76304;PMS7003;65111;50.536;19.204;2023-04-24T00:48:14;20.00;19.00;13.00
76304;PMS7003;65111;50.536;19.204;2023-04-24T00:50:40;19.00;13.67;8.33
76304;PMS7003;65111;50.536;19.204;2023-04-24T00:53:07;20.50;18.00;12.50
76304;PMS7003;65111;50.536;19.204;2023-04-24T00:55:33;22.00;19.00;16.00
76304;PMS7003;65111;50.536;19.204;2023-04-24T00:58:02;22.00;19.00;13.00
76304;PMS7003;65111;50.536;19.204;2023-04-24T01:00:28;22.00;13.00;9.00
76304;PMS7003;65111;50.536;19.204;2023-04-24T01:02:55;16.00;15.00;11.00
76304;PMS7003;65111;50.536;19.204;2023-04-24T01:05:23;13.33;12.00;8.67
76304;PMS7003;65111;50.536;19.204;2023-04-24T01:07:49;12.50;9.00;6.50
76304;PMS7003;65111;50.536;19.204;2023-04-24T01:10:15;9.00;9.00;6.33
76304;PMS7003;65111;50.536;19.204;2023-04-24T01:12:43;9.67;8.00;5.33
76304;PMS7003;65111;50.536;19.204;2023-04-24T01:15:09;12.50;11.00;7.50
76304;PMS7003;65111;50.536;19.204;2023-04-24T01:17:35;12.00;11.00;8.00
76304;PMS7003;65111;50.536;19.204;2023-04-24T01:20:01;11.67;11.67;8.33
76304;PMS7003;65111;50.536;19.204;2023-04-24T01:22:32;11.50;11.00;8.50
76304;PMS7003;65111;50.536;19.204;2023-04-24T01:25:00;15.00;13.00;9.00
76304;PMS7003;65111;50.536;19.204;2023-04-24T01:27:26;15.50;15.50;10.00
76304;PMS7003;65111;50.536;19.204;2023-04-24T01:29:52;17.00;17.00;11.00
76304;PMS7003;65111;50.536;19.204;2023-04-24T01:32:19;19.50;15.50;14.00
76304;PMS7003;65111;50.536;19.204;2023-04-24T01:34:45;24.33;22.67;17.33
76304;PMS7003;65111;50.536;19.204;2023-04-24T01:37:12;15.00;14.00;9.00
76304;PMS7003;65111;50.536;19.204;2023-04-24T01:39:38;23.00;18.00;12.00
76304;PMS7003;65111;50.536;19.204;2023-04-24T01:42:05;14.33;14.33;9.00
76304;PMS7003;65111;50.536;19.204;2023-04-24T01:44:31;11.00;11.00;7.00
76304;PMS7003;65111;50.536;19.204;2023-04-24T01:46:59;16.00;13.50;9.00
76304;PMS7003;65111;50.536;19.204;2023-04-24T01:49:26;16.67;16.67;11.33
76304;PMS7003;65111;50.536;19.204;2023-04-24T01:51:52;10.33;10.33;8.00
76304;PMS7003;65111;50.536;19.204;2023-04-24T01:54:19;15.00;12.00;9.00
76304;PMS7003;65111;50.536;19.204;2023-04-24T01:56:45;16.50;16.50;13.00
76304;PMS7003;65111;50.536;19.204;2023-04-24T01:59:12;15.00;13.00;11.00
76304;PMS7003;65111;50.536;19.204;2023-04-24T02:01:38;9.00;9.00;7.67
76304;PMS7003;65111;50.536;19.204;2023-04-24T02:04:05;12.00;12.00;9.00
76304;PMS7003;65111;50.536;19.204;2023-04-24T02:06:32;15.00;11.00;9.00
76304;PMS7003;65111;50.536;19.204;2023-04-24T02:08:59;20.67;18.33;12.67
76304;PMS7003;65111;50.536;19.204;2023-04-24T02:11:25;13.67;11.33;8.00
76304;PMS7003;65111;50.536;19.204;2023-04-24T02:13:52;21.67;18.00;12.67
76304;PMS7003;65111;50.536;19.204;2023-04-24T02:16:19;25.00;18.50;12.00
76304;PMS7003;65111;50.536;19.204;2023-04-24T02:18:45;14.00;14.00;9.00
76304;PMS7003;65111;50.536;19.204;2023-04-24T02:21:11;14.00;14.00;11.00
76304;PMS7003;65111;50.536;19.204;2023-04-24T02:23:37;18.00;18.00;11.00
76304;PMS7003;65111;50.536;19.204;2023-04-24T02:26:03;19.00;17.00;12.33
76304;PMS7003;65111;50.536;19.204;2023-04-24T02:28:30;14.50;14.50;10.50
76304;PMS7003;65111;50.536;19.204;2023-04-24T02:30:55;21.00;18.00;12.00
76304;PMS7003;65111;50.536;19.204;2023-04-24T02:33:21;17.00;14.00;8.00
76304;PMS7003;65111;50.536;19.204;2023-04-24T02:35:47;18.00;17.00;12.67
76304;PMS7003;65111;50.536;19.204;2023-04-24T02:38:13;21.50;17.50;12.00
76304;PMS7003;65111;50.536;19.204;2023-04-24T02:40:40;21.00;17.00;13.00
76304;PMS7003;65111;50.536;19.204;2023-04-24T02:43:06;15.50;14.00;10.00
76304;PMS7003;65111;50.536;19.204;2023-04-24T02:45:32;11.50;11.50;9.00
76304;PMS7003;65111;50.536;19.204;2023-04-24T02:48:00;13.33;13.33;10.00
76304;PMS7003;65111;50.536;19.204;2023-04-24T02:50:26;11.00;11.00;8.00
76304;PMS7003;65111;50.536;19.204;2023-04-24T02:52:52;15.00;14.00;10.00
76304;PMS7003;65111;50.536;19.204;2023-04-24T02:55:18;12.33;12.33;10.00
76304;PMS7003;65111;50.536;19.204;2023-04-24T02:57:44;24.33;18.00;11.67
76304;PMS7003;65111;50.536;19.204;2023-04-24T03:00:11;13.00;13.00;10.00
76304;PMS7003;65111;50.536;19.204;2023-04-24T03:02:38;14.00;10.00;7.33
76304;PMS7003;65111;50.536;19.204;2023-04-24T03:05:05;21.00;16.00;10.00
76304;PMS7003;65111;50.536;19.204;2023-04-24T03:07:31;14.33;14.33;11.00
76304;PMS7003;65111;50.536;19.204;2023-04-24T03:09:57;17.00;14.00;10.50
76304;PMS7003;65111;50.536;19.204;2023-04-24T03:12:24;14.67;14.67;10.00
76304;PMS7003;65111;50.536;19.204;2023-04-24T03:14:50;17.00;16.50;9.00
76304;PMS7003;65111;50.536;19.204;2023-04-24T03:17:17;16.00;12.00;8.00
76304;PMS7003;65111;50.536;19.204;2023-04-24T03:19:43;13.00;11.00;8.00
76304;PMS7003;65111;50.536;19.204;2023-04-24T03:22:09;13.00;11.00;10.00
76304;PMS7003;65111;50.536;19.204;2023-04-24T03:24:35;9.00;9.00;7.00
76304;PMS7003;65111;50.536;19.204;2023-04-24T03:27:01;14.67;13.00;8.00
76304;PMS7003;65111;50.536;19.204;2023-04-24T03:29:27;7.00;7.00;4.50
76304;PMS7003;65111;50.536;19.204;2023-04-24T03:31:53;7.67;7.67;6.33
76304;PMS7003;65111;50.536;19.204;2023-04-24T03:34:20;11.00;10.50;7.50
76304;PMS7003;65111;50.536;19.204;2023-04-24T03:36:46;10.00;10.00;8.00
76304;PMS7003;65111;50.536;19.204;2023-04-24T03:39:15;10.00;10.00;7.00
76304;PMS7003;65111;50.536;19.204;2023-04-24T03:41:41;13.00;13.00;8.00
76304;PMS7003;65111;50.536;19.204;2023-04-24T03:44:07;10.00;5.00;4.50
76304;PMS7003;65111;50.536;19.204;2023-04-24T03:46:33;14.00;10.67;7.33
76304;PMS7003;65111;50.536;19.204;2023-04-24T03:48:59;15.00;14.00;11.00
76304;PMS7003;65111;50.536;19.204;2023-04-24T03:51:25;8.00;8.00;7.00
76304;PMS7003;65111;50.536;19.204;2023-04-24T03:53:53;11.00;10.00;7.00
76304;PMS7003;65111;50.536;19.204;2023-04-24T03:56:19;8.00;8.00;7.00
76304;PMS7003;65111;50.536;19.204;2023-04-24T03:58:46;20.00;13.00;9.00
76304;PMS7003;65111;50.536;19.204;2023-04-24T04:01:12;17.00;10.00;5.50
76304;PMS7003;65111;50.536;19.204;2023-04-24T04:03:38;9.00;8.00;6.00
76304;PMS7003;65111;50.536;19.204;2023-04-24T04:06:05;8.33;8.33;6.00
76304;PMS7003;65111;50.536;19.204;2023-04-24T04:08:31;9.00;9.00;6.00
76304;PMS7003;65111;50.536;19.204;2023-04-24T04:10:57;9.33;8.33;6.33
76304;PMS7003;65111;50.536;19.204;2023-04-24T04:13:23;10.50;10.50;7.50
76304;PMS7003;65111;50.536;19.204;2023-04-24T04:15:49;10.00;9.00;5.00
76304;PMS7003;65111;50.536;19.204;2023-04-24T04:18:16;9.50;7.00;5.50
76304;PMS7003;65111;50.536;19.204;2023-04-24T04:20:42;6.00;5.33;4.33
76304;PMS7003;65111;50.536;19.204;2023-04-24T04:23:08;8.00;7.00;6.00
76304;PMS7003;65111;50.536;19.204;2023-04-24T04:25:34;8.00;7.00;4.00
76304;PMS7003;65111;50.536;19.204;2023-04-24T04:28:00;7.00;7.00;4.67
76304;PMS7003;65111;50.536;19.204;2023-04-24T04:30:27;12.00;9.00;7.00
76304;PMS7003;65111;50.536;19.204;2023-04-24T04:32:54;11.00;10.00;8.00
76304;PMS7003;65111;50.536;19.204;2023-04-24T04:35:21;13.00;13.00;9.00
76304;PMS7003;65111;50.536;19.204;2023-04-24T04:37:47;15.00;10.67;8.00
76304;PMS7003;65111;50.536;19.204;2023-04-24T04:40:13;12.00;11.00;7.00
76304;PMS7003;65111;50.536;19.204;2023-04-24T04:42:39;9.00;8.50;5.00
76304;PMS7003;65111;50.536;19.204;2023-04-24T04:45:09;10.00;10.00;6.50
76304;PMS7003;65111;50.536;19.204;2023-04-24T04:47:37;7.00;7.00;5.00
76304;PMS7003;65111;50.536;19.204;2023-04-24T04:50:03;9.00;8.00;7.00
76304;PMS7003;65111;50.536;19.204;2023-04-24T04:52:31;8.67;7.67;5.00
76304;PMS7003;65111;50.536;19.204;2023-04-24T04:54:57;10.50;9.50;7.00
76304;PMS7003;65111;50.536;19.204;2023-04-24T04:57:23;12.50;12.50;9.00
76304;PMS7003;65111;50.536;19.204;2023-04-24T04:59:49;11.00;11.00;9.00
76304;PMS7003;65111;50.536;19.204;2023-04-24T05:02:15;12.00;12.00;10.00
76304;PMS7003;65111;50.536;19.204;2023-04-24T05:04:41;11.50;11.00;8.00
76304;PMS7003;65111;50.536;19.204;2023-04-24T05:07:07;11.00;9.00;7.00
76304;PMS7003;65111;50.536;19.204;2023-04-24T05:09:33;13.00;12.00;9.00
76304;PMS7003;65111;50.536;19.204;2023-04-24T05:11:59;10.50;10.50;8.50
76304;PMS7003;65111;50.536;19.204;2023-04-24T05:14:25;10.00;10.00;7.00
76304;PMS7003;65111;50.536;19.204;2023-04-24T05:16:52;13.50;10.00;8.00
76304;PMS7003;65111;50.536;19.204;2023-04-24T05:19:18;13.00;12.50;9.50
76304;PMS7003;65111;50.536;19.204;2023-04-24T05:21:44;10.00;10.00;8.00
76304;PMS7003;65111;50.536;19.204;2023-04-24T05:24:10;13.50;13.00;10.50
76304;PMS7003;65111;50.536;19.204;2023-04-24T05:26:36;9.00;9.00;7.00
76304;PMS7003;65111;50.536;19.204;2023-04-24T05:29:03;8.50;8.50;7.00
76304;PMS7003;65111;50.536;19.204;2023-04-24T05:31:29;9.00;8.00;7.00
76304;PMS7003;65111;50.536;19.204;2023-04-24T05:33:56;8.50;8.00;5.50
76304;PMS7003;65111;50.536;19.204;2023-04-24T05:36:22;6.00;6.00;4.00
76304;PMS7003;65111;50.536;19.204;2023-04-24T05:38:48;8.00;8.00;6.00
76304;PMS7003;65111;50.536;19.204;2023-04-24T05:41:14;10.00;8.50;7.00
76304;PMS7003;65111;50.536;19.204;2023-04-24T05:43:40;13.00;12.00;9.00
76304;PMS7003;65111;50.536;19.204;2023-04-24T05:46:06;10.00;9.00;5.00
76304;PMS7003;65111;50.536;19.204;2023-04-24T05:48:32;12.00;11.00;8.00
76304;PMS7003;65111;50.536;19.204;2023-04-24T05:50:58;10.00;9.00;7.50
76304;PMS7003;65111;50.536;19.204;2023-04-24T05:53:25;17.00;14.00;9.50
76304;PMS7003;65111;50.536;19.204;2023-04-24T05:55:51;14.00;10.50;8.00
76304;PMS7003;65111;50.536;19.204;2023-04-24T05:58:17;12.67;9.67;7.00
76304;PMS7003;65111;50.536;19.204;2023-04-24T06:00:43;13.50;9.00;6.50
76304;PMS7003;65111;50.536;19.204;2023-04-24T06:03:11;11.00;10.00;8.00
76304;PMS7003;65111;50.536;19.204;2023-04-24T06:05:37;11.00;9.00;8.00
76304;PMS7003;65111;50.536;19.204;2023-04-24T06:08:04;15.33;11.33;9.00
76304;PMS7003;65111;50.536;19.204;2023-04-24T06:10:30;8.00;8.00;6.00
76304;PMS7003;65111;50.536;19.204;2023-04-24T06:12:56;11.00;9.50;8.00
76304;PMS7003;65111;50.536;19.204;2023-04-24T06:15:27;12.00;10.50;8.50
76304;PMS7003;65111;50.536;19.204;2023-04-24T06:17:59;2.50;1.50;0.00
76304;PMS7003;65111;50.536;19.204;2023-04-24T06:20:26;9.50;9.50;7.50
76304;PMS7003;65111;50.536;19.204;2023-04-24T06:22:52;9.33;9.33;7.33
76304;PMS7003;65111;50.536;19.204;2023-04-24T06:25:18;12.00;11.00;7.50
76304;PMS7003;65111;50.536;19.204;2023-04-24T06:27:44;11.00;11.00;9.00
76304;PMS7003;65111;50.536;19.204;2023-04-24T06:30:10;11.00;9.00;8.00
76304;PMS7003;65111;50.536;19.204;2023-04-24T06:32:37;10.00;10.00;8.00
76304;PMS7003;65111;50.536;19.204;2023-04-24T06:35:03;11.00;9.00;7.00
76304;PMS7003;65111;50.536;19.204;2023-04-24T06:37:29;13.00;13.00;11.00
76304;PMS7003;65111;50.536;19.204;2023-04-24T06:39:56;10.00;10.00;8.00
76304;PMS7003;65111;50.536;19.204;2023-04-24T06:42:22;12.00;10.00;9.00
76304;PMS7003;65111;50.536;19.204;2023-04-24T06:44:50;11.50;11.00;9.00
76304;PMS7003;65111;50.536;19.204;2023-04-24T06:47:16;10.00;10.00;8.00
76304;PMS7003;65111;50.536;19.204;2023-04-24T06:49:42;13.33;11.00;8.67
76304;PMS7003;65111;50.536;19.204;2023-04-24T06:52:08;14.00;13.00;10.00
76304;PMS7003;65111;50.536;19.204;2023-04-24T06:54:34;12.00;10.00;9.00
76304;PMS7003;65111;50.536;19.204;2023-04-24T06:57:01;9.00;9.00;8.00
76304;PMS7003;65111;50.536;19.204;2023-04-24T06:59:28;8.67;8.33;7.00
76304;PMS7003;65111;50.536;19.204;2023-04-24T07:01:55;8.67;7.00;5.67
76304;PMS7003;65111;50.536;19.204;2023-04-24T07:04:21;8.00;8.00;5.00
76304;PMS7003;65111;50.536;19.204;2023-04-24T07:06:47;10.67;9.00;8.00
76304;PMS7003;65111;50.536;19.204;2023-04-24T07:09:18;9.00;9.00;7.00
76304;PMS7003;65111;50.536;19.204;2023-04-24T07:11:44;12.00;11.00;8.00
76304;PMS7003;65111;50.536;19.204;2023-04-24T07:14:11;9.50;9.50;7.50
76304;PMS7003;65111;50.536;19.204;2023-04-24T07:16:37;11.00;11.00;9.00
76304;PMS7003;65111;50.536;19.204;2023-04-24T07:19:04;8.00;8.00;6.50
76304;PMS7003;65111;50.536;19.204;2023-04-24T07:21:30;8.00;8.00;6.00
76304;PMS7003;65111;50.536;19.204;2023-04-24T07:23:57;10.67;10.00;7.33
76304;PMS7003;65111;50.536;19.204;2023-04-24T07:26:24;10.00;10.00;7.50
76304;PMS7003;65111;50.536;19.204;2023-04-24T07:28:51;8.33;8.00;6.33
76304;PMS7003;65111;50.536;19.204;2023-04-24T07:31:17;8.00;8.00;5.67
76304;PMS7003;65111;50.536;19.204;2023-04-24T07:33:43;9.00;9.00;9.00
76304;PMS7003;65111;50.536;19.204;2023-04-24T07:36:09;6.67;6.67;5.33
76304;PMS7003;65111;50.536;19.204;2023-04-24T07:38:43;8.67;8.67;6.67
76304;PMS7003;65111;50.536;19.204;2023-04-24T07:41:10;9.00;8.67;7.33
76304;PMS7003;65111;50.536;19.204;2023-04-24T07:43:36;10.67;10.67;8.33
76304;PMS7003;65111;50.536;19.204;2023-04-24T07:46:02;8.00;8.00;5.00
76304;PMS7003;65111;50.536;19.204;2023-04-24T07:48:28;8.00;6.00;5.00
76304;PMS7003;65111;50.536;19.204;2023-04-24T07:50:54;6.00;6.00;5.00
76304;PMS7003;65111;50.536;19.204;2023-04-24T07:53:21;5.25;5.25;4.75
76304;PMS7003;65111;50.536;19.204;2023-04-24T07:55:47;8.00;6.00;5.67
76304;PMS7003;65111;50.536;19.204;2023-04-24T07:58:13;8.33;7.67;6.67
76304;PMS7003;65111;50.536;19.204;2023-04-24T08:00:39;7.33;7.33;6.33
76304;PMS7003;65111;50.536;19.204;2023-04-24T08:03:05;9.00;7.00;5.67
76304;PMS7003;65111;50.536;19.204;2023-04-24T08:05:31;7.00;6.00;5.00
76304;PMS7003;65111;50.536;19.204;2023-04-24T08:07:58;8.00;8.00;7.00
76304;PMS7003;65111;50.536;19.204;2023-04-24T08:10:24;8.00;7.00;6.67
76304;PMS7003;65111;50.536;19.204;2023-04-24T08:12:50;8.00;8.00;7.00
76304;PMS7003;65111;50.536;19.204;2023-04-24T08:15:17;7.33;7.33;6.33
76304;PMS7003;65111;50.536;19.204;2023-04-24T08:17:43;9.00;9.00;7.50
76304;PMS7003;65111;50.536;19.204;2023-04-24T08:20:10;8.00;7.67;6.33
76304;PMS7003;65111;50.536;19.204;2023-04-24T08:22:40;8.00;8.00;5.50
76304;PMS7003;65111;50.536;19.204;2023-04-24T08:25:07;7.33;7.33;5.67
76304;PMS7003;65111;50.536;19.204;2023-04-24T08:27:33;9.00;8.00;6.00
76304;PMS7003;65111;50.536;19.204;2023-04-24T08:30:00;7.25;7.25;6.50
76304;PMS7003;65111;50.536;19.204;2023-04-24T08:32:26;7.50;7.00;5.00
76304;PMS7003;65111;50.536;19.204;2023-04-24T08:34:58;9.00;9.00;8.00
76304;PMS7003;65111;50.536;19.204;2023-04-24T08:37:25;7.00;7.00;6.00
76304;PMS7003;65111;50.536;19.204;2023-04-24T08:39:52;8.75;8.00;6.50
76304;PMS7003;65111;50.536;19.204;2023-04-24T08:42:19;5.00;5.00;4.00
76304;PMS7003;65111;50.536;19.204;2023-04-24T08:44:47;4.00;4.00;3.50
76304;PMS7003;65111;50.536;19.204;2023-04-24T08:47:14;6.00;6.00;5.00
76304;PMS7003;65111;50.536;19.204;2023-04-24T08:49:41;4.50;4.50;3.50
76304;PMS7003;65111;50.536;19.204;2023-04-24T08:52:08;7.50;7.50;5.50
76304;PMS7003;65111;50.536;19.204;2023-04-24T08:54:34;6.00;5.50;4.00
76304;PMS7003;65111;50.536;19.204;2023-04-24T08:57:01;6.33;6.33;5.00
76304;PMS7003;65111;50.536;19.204;2023-04-24T08:59:29;5.00;5.00;4.33
76304;PMS7003;65111;50.536;19.204;2023-04-24T09:01:56;7.00;5.50;5.00
76304;PMS7003;65111;50.536;19.204;2023-04-24T09:04:23;4.00;4.00;3.00
76304;PMS7003;65111;50.536;19.204;2023-04-24T09:06:51;4.00;4.00;2.50
76304;PMS7003;65111;50.536;19.204;2023-04-24T09:09:20;4.00;4.00;4.00
76304;PMS7003;65111;50.536;19.204;2023-04-24T09:11:48;5.00;5.00;5.00
76304;PMS7003;65111;50.536;19.204;2023-04-24T09:14:15;3.75;3.75;3.00
76304;PMS7003;65111;50.536;19.204;2023-04-24T09:16:43;5.50;5.50;5.00
76304;PMS7003;65111;50.536;19.204;2023-04-24T09:19:09;6.50;6.50;5.00
76304;PMS7003;65111;50.536;19.204;2023-04-24T09:21:35;5.75;5.75;4.75
76304;PMS7003;65111;50.536;19.204;2023-04-24T09:24:05;4.50;4.50;4.00
76304;PMS7003;65111;50.536;19.204;2023-04-24T09:26:35;5.00;5.00;5.00
76304;PMS7003;65111;50.536;19.204;2023-04-24T09:29:02;5.33;5.33;4.67
76304;PMS7003;65111;50.536;19.204;2023-04-24T09:31:29;5.67;5.67;5.00
76304;PMS7003;65111;50.536;19.204;2023-04-24T09:33:56;4.33;3.33;3.33
76304;PMS7003;65111;50.536;19.204;2023-04-24T09:36:57;4.75;4.75;4.00
76304;PMS7003;65111;50.536;19.204;2023-04-24T09:39:17;3.33;3.33;2.33
76304;PMS7003;65111;50.536;19.204;2023-04-24T09:41:46;4.00;4.00;2.50
76304;PMS7003;65111;50.536;19.204;2023-04-24T09:44:19;4.00;4.00;2.00
76304;PMS7003;65111;50.536;19.204;2023-04-24T09:46:50;4.50;4.50;4.00
76304;PMS7003;65111;50.536;19.204;2023-04-24T09:49:22;3.25;3.25;3.25
76304;PMS7003;65111;50.536;19.204;2023-04-24T09:51:50;5.00;5.00;4.00
76304;PMS7003;65111;50.536;19.204;2023-04-24T09:54:18;4.75;4.75;4.75
76304;PMS7003;65111;50.536;19.204;2023-04-24T09:56:49;3.50;3.50;3.00
76304;PMS7003;65111;50.536;19.204;2023-04-24T09:59:17;5.00;5.00;5.00
76304;PMS7003;65111;50.536;19.204;2023-04-24T10:01:44;5.00;5.00;4.00
76304;PMS7003;65111;50.536;19.204;2023-04-24T10:04:18;4.50;4.50;4.50
76304;PMS7003;65111;50.536;19.204;2023-04-24T10:06:46;5.33;5.33;4.33
76304;PMS7003;65111;50.536;19.204;2023-04-24T10:09:14;6.00;5.00;4.00
76304;PMS7003;65111;50.536;19.204;2023-04-24T10:11:42;5.00;5.00;4.50
76304;PMS7003;65111;50.536;19.204;2023-04-24T10:14:15;5.00;5.00;5.00
76304;PMS7003;65111;50.536;19.204;2023-04-24T10:16:49;5.50;5.00;4.50
76304;PMS7003;65111;50.536;19.204;2023-04-24T10:19:18;6.67;6.67;6.00
76304;PMS7003;65111;50.536;19.204;2023-04-24T10:21:44;7.00;7.00;6.00
76304;PMS7003;65111;50.536;19.204;2023-04-24T10:24:14;6.00;6.00;4.00
76304;PMS7003;65111;50.536;19.204;2023-04-24T10:26:41;6.00;6.00;5.50
76304;PMS7003;65111;50.536;19.204;2023-04-24T10:29:09;7.00;5.33;4.33
76304;PMS7003;65111;50.536;19.204;2023-04-24T10:31:38;5.67;5.67;5.33
76304;PMS7003;65111;50.536;19.204;2023-04-24T10:34:05;5.00;5.00;4.00
76304;PMS7003;65111;50.536;19.204;2023-04-24T10:36:35;6.00;6.00;4.67
76304;PMS7003;65111;50.536;19.204;2023-04-24T10:39:06;6.00;6.00;5.67
76304;PMS7003;65111;50.536;19.204;2023-04-24T10:41:37;5.67;5.67;5.00
76304;PMS7003;65111;50.536;19.204;2023-04-24T10:44:10;6.00;6.00;5.00
76304;PMS7003;65111;50.536;19.204;2023-04-24T10:46:39;6.00;6.00;5.50
76304;PMS7003;65111;50.536;19.204;2023-04-24T10:49:09;6.50;6.50;5.50
76304;PMS7003;65111;50.536;19.204;2023-04-24T10:51:48;7.00;7.00;5.50
76304;PMS7003;65111;50.536;19.204;2023-04-24T10:59:48;6.33;6.33;4.33
76304;PMS7003;65111;50.536;19.204;2023-04-24T11:02:19;6.33;6.33;5.67
76304;PMS7003;65111;50.536;19.204;2023-04-24T11:05:05;6.67;6.67;5.33
76304;PMS7003;65111;50.536;19.204;2023-04-24T11:10:41;6.33;5.67;4.33
76304;PMS7003;65111;50.536;19.204;2023-04-24T11:13:10;4.50;4.50;4.00
76304;PMS7003;65111;50.536;19.204;2023-04-24T11:15:36;7.00;7.00;5.50
76304;PMS7003;65111;50.536;19.204;2023-04-24T11:18:02;7.00;7.00;6.00
76304;PMS7003;65111;50.536;19.204;2023-04-24T11:20:28;5.00;5.00;4.00
76304;PMS7003;65111;50.536;19.204;2023-04-24T11:22:55;6.75;5.75;5.00
76304;PMS7003;65111;50.536;19.204;2023-04-24T11:25:23;5.25;5.25;4.75
76304;PMS7003;65111;50.536;19.204;2023-04-24T11:27:50;6.67;5.67;4.33
76304;PMS7003;65111;50.536;19.204;2023-04-24T11:30:29;6.00;6.00;3.50
76304;PMS7003;65111;50.536;19.204;2023-04-24T11:32:56;5.75;5.75;4.75
76304;PMS7003;65111;50.536;19.204;2023-04-24T11:35:34;6.00;6.00;5.67
76304;PMS7003;65111;50.536;19.204;2023-04-24T11:38:04;7.50;7.50;6.50
76304;PMS7003;65111;50.536;19.204;2023-04-24T11:40:32;6.00;6.00;4.50
76304;PMS7003;65111;50.536;19.204;2023-04-24T11:42:59;7.00;7.00;6.00
76304;PMS7003;65111;50.536;19.204;2023-04-24T11:45:27;5.00;5.00;4.00
76304;PMS7003;65111;50.536;19.204;2023-04-24T11:47:54;7.00;7.00;5.00
76304;PMS7003;65111;50.536;19.204;2023-04-24T11:50:21;5.00;5.00;3.67
76304;PMS7003;65111;50.536;19.204;2023-04-24T11:52:49;6.00;5.00;5.00
76304;PMS7003;65111;50.536;19.204;2023-04-24T12:00:18;8.00;7.00;6.00
76304;PMS7003;65111;50.536;19.204;2023-04-24T12:02:46;8.00;6.00;5.00
76304;PMS7003;65111;50.536;19.204;2023-04-24T12:05:23;9.00;9.00;7.00
76304;PMS7003;65111;50.536;19.204;2023-04-24T12:07:51;7.00;7.00;6.00
76304;PMS7003;65111;50.536;19.204;2023-04-24T12:10:21;8.00;8.00;6.50
76304;PMS7003;65111;50.536;19.204;2023-04-24T12:12:49;10.00;9.00;8.00
76304;PMS7003;65111;50.536;19.204;2023-04-24T12:15:17;8.00;8.00;6.00
76304;PMS7003;65111;50.536;19.204;2023-04-24T12:17:45;9.50;8.00;7.00
76304;PMS7003;65111;50.536;19.204;2023-04-24T12:20:12;8.00;8.00;6.00
76304;PMS7003;65111;50.536;19.204;2023-04-24T12:22:52;7.50;7.50;5.50
76304;PMS7003;65111;50.536;19.204;2023-04-24T12:25:20;13.00;11.00;7.00
76304;PMS7003;65111;50.536;19.204;2023-04-24T12:28:22;6.00;6.00;4.50
76304;PMS7003;65111;50.536;19.204;2023-04-24T12:30:46;9.00;9.00;7.50
76304;PMS7003;65111;50.536;19.204;2023-04-24T12:33:17;9.00;9.00;8.00
76304;PMS7003;65111;50.536;19.204;2023-04-24T12:35:45;9.00;9.00;7.00
76304;PMS7003;65111;50.536;19.204;2023-04-24T12:38:12;9.00;9.00;7.00
76304;PMS7003;65111;50.536;19.204;2023-04-24T12:40:42;9.00;9.00;7.00
76304;PMS7003;65111;50.536;19.204;2023-04-24T12:43:18;12.00;10.00;7.50
76304;PMS7003;65111;50.536;19.204;2023-04-24T12:45:45;10.00;9.50;7.50
76304;PMS7003;65111;50.536;19.204;2023-04-24T12:48:13;9.50;9.50;7.00
76304;PMS7003;65111;50.536;19.204;2023-04-24T12:50:42;9.00;9.00;5.00
76304;PMS7003;65111;50.536;19.204;2023-04-24T12:53:08;8.50;8.50;7.00
76304;PMS7003;65111;50.536;19.204;2023-04-24T12:55:34;10.00;10.00;9.00
76304;PMS7003;65111;50.536;19.204;2023-04-24T12:58:01;9.00;8.00;6.00
76304;PMS7003;65111;50.536;19.204;2023-04-24T13:00:28;9.50;9.50;8.00
76304;PMS7003;65111;50.536;19.204;2023-04-24T13:02:54;8.50;8.50;7.00
76304;PMS7003;65111;50.536;19.204;2023-04-24T13:05:21;14.00;11.00;9.00
76304;PMS7003;65111;50.536;19.204;2023-04-24T13:07:46;10.00;10.00;8.00
76304;PMS7003;65111;50.536;19.204;2023-04-24T13:10:12;6.00;6.00;5.00
76304;PMS7003;65111;50.536;19.204;2023-04-24T13:12:39;12.50;12.50;9.50
76304;PMS7003;65111;50.536;19.204;2023-04-24T13:15:06;10.00;10.00;8.00
76304;PMS7003;65111;50.536;19.204;2023-04-24T13:17:32;11.00;10.50;8.00
76304;PMS7003;65111;50.536;19.204;2023-04-24T13:19:58;10.00;9.00;7.00
76304;PMS7003;65111;50.536;19.204;2023-04-24T13:22:24;11.00;11.00;9.00
76304;PMS7003;65111;50.536;19.204;2023-04-24T13:24:51;12.33;12.33;9.00
76304;PMS7003;65111;50.536;19.204;2023-04-24T13:27:17;10.00;10.00;7.00
76304;PMS7003;65111;50.536;19.204;2023-04-24T13:29:43;11.00;11.00;9.00
76304;PMS7003;65111;50.536;19.204;2023-04-24T13:32:10;10.50;10.50;7.50
76304;PMS7003;65111;50.536;19.204;2023-04-24T13:34:36;12.67;11.33;10.00
76304;PMS7003;65111;50.536;19.204;2023-04-24T13:37:02;13.50;13.50;9.50
76304;PMS7003;65111;50.536;19.204;2023-04-24T13:39:33;12.00;10.67;8.00
76304;PMS7003;65111;50.536;19.204;2023-04-24T13:41:59;12.00;12.00;9.50
76304;PMS7003;65111;50.536;19.204;2023-04-24T13:44:25;12.00;12.00;9.00
76304;PMS7003;65111;50.536;19.204;2023-04-24T13:46:52;14.00;12.00;9.00
76304;PMS7003;65111;50.536;19.204;2023-04-24T13:49:20;11.50;11.50;9.00
76304;PMS7003;65111;50.536;19.204;2023-04-24T13:51:46;12.00;12.00;8.33
76304;PMS7003;65111;50.536;19.204;2023-04-24T13:54:13;13.50;13.50;10.50
76304;PMS7003;65111;50.536;19.204;2023-04-24T13:56:39;12.00;12.00;9.00
76304;PMS7003;65111;50.536;19.204;2023-04-24T13:59:06;11.00;11.00;9.00
76304;PMS7003;65111;50.536;19.204;2023-04-24T14:01:32;14.50;14.50;10.00
76304;PMS7003;65111;50.536;19.204;2023-04-24T14:03:58;9.00;9.00;7.00
76304;PMS7003;65111;50.536;19.204;2023-04-24T14:06:25;10.00;10.00;8.00
76304;PMS7003;65111;50.536;19.204;2023-04-24T14:08:51;10.00;10.00;8.00
76304;PMS7003;65111;50.536;19.204;2023-04-24T14:11:17;10.00;10.00;7.00